sensor_id;sensor_type;location;lat;lon;timestamp;P1;durP1;ratioP1;P2;durP2;ratioP2
58908;SDS011;44690;48.154;17.102;2023-03-03T00:00:30;50.63;;;30.45;;
58908;SDS011;44690;48.154;17.102;2023-03-03T00:02:02;54.67;;;31.27;;
58908;SDS011;44690;48.154;17.102;2023-03-03T00:03:35;49.47;;;27.88;;
58908;SDS011;44690;48.154;17.102;2023-03-03T00:05:07;50.95;;;26.60;;
58908;SDS011;44690;48.154;17.102;2023-03-03T00:06:40;50.78;;;30.25;;
58908;SDS011;44690;48.154;17.102;2023-03-03T00:08:12;53.20;;;29.95;;
58908;SDS011;44690;48.154;17.102;2023-03-03T00:09:44;50.08;;;28.00;;
58908;SDS011;44690;48.154;17.102;2023-03-03T00:11:16;53.87;;;29.67;;
58908;SDS011;44690;48.154;17.102;2023-03-03T00:12:48;59.33;;;32.20;;
58908;SDS011;44690;48.154;17.102;2023-03-03T00:14:22;66.35;;;36.53;;
58908;SDS011;44690;48.154;17.102;2023-03-03T00:16:14;53.95;;;32.05;;
58908;SDS011;44690;48.154;17.102;2023-03-03T00:17:51;66.65;;;34.15;;
58908;SDS011;44690;48.154;17.102;2023-03-03T00:19:23;65.85;;;38.10;;
58908;SDS011;44690;48.154;17.102;2023-03-03T00:20:56;65.57;;;34.75;;
58908;SDS011;44690;48.154;17.102;2023-03-03T00:22:35;58.42;;;33.00;;
58908;SDS011;44690;48.154;17.102;2023-03-03T00:24:18;51.70;;;31.98;;
58908;SDS011;44690;48.154;17.102;2023-03-03T00:25:52;68.85;;;33.42;;
58908;SDS011;44690;48.154;17.102;2023-03-03T00:27:27;57.35;;;31.13;;
58908;SDS011;44690;48.154;17.102;2023-03-03T00:29:02;63.42;;;33.83;;
58908;SDS011;44690;48.154;17.102;2023-03-03T00:30:58;53.53;;;29.27;;
58908;SDS011;44690;48.154;17.102;2023-03-03T00:32:44;56.92;;;30.65;;
58908;SDS011;44690;48.154;17.102;2023-03-03T00:37:47;34.50;;;21.38;;
58908;SDS011;44690;48.154;17.102;2023-03-03T00:41:15;32.53;;;19.13;;
58908;SDS011;44690;48.154;17.102;2023-03-03T00:42:54;39.20;;;21.85;;
58908;SDS011;44690;48.154;17.102;2023-03-03T00:46:21;34.55;;;19.75;;
58908;SDS011;44690;48.154;17.102;2023-03-03T00:47:54;41.25;;;18.55;;
58908;SDS011;44690;48.154;17.102;2023-03-03T00:49:28;27.55;;;16.65;;
58908;SDS011;44690;48.154;17.102;2023-03-03T00:51:01;31.45;;;19.92;;
58908;SDS011;44690;48.154;17.102;2023-03-03T00:52:52;31.52;;;19.35;;
58908;SDS011;44690;48.154;17.102;2023-03-03T00:54:33;27.85;;;17.63;;
58908;SDS011;44690;48.154;17.102;2023-03-03T00:56:06;36.35;;;19.60;;
58908;SDS011;44690;48.154;17.102;2023-03-03T00:57:38;29.85;;;17.90;;
58908;SDS011;44690;48.154;17.102;2023-03-03T00:59:13;34.70;;;19.25;;
58908;SDS011;44690;48.154;17.102;2023-03-03T01:00:45;35.13;;;21.30;;
58908;SDS011;44690;48.154;17.102;2023-03-03T01:02:21;27.38;;;18.33;;
58908;SDS011;44690;48.154;17.102;2023-03-03T01:03:54;44.50;;;18.25;;
58908;SDS011;44690;48.154;17.102;2023-03-03T01:05:26;28.75;;;18.55;;
58908;SDS011;44690;48.154;17.102;2023-03-03T01:06:59;32.53;;;18.23;;
58908;SDS011;44690;48.154;17.102;2023-03-03T01:08:31;25.95;;;18.27;;
58908;SDS011;44690;48.154;17.102;2023-03-03T01:10:05;36.17;;;20.00;;
58908;SDS011;44690;48.154;17.102;2023-03-03T01:11:38;27.40;;;17.88;;
58908;SDS011;44690;48.154;17.102;2023-03-03T01:13:10;34.92;;;18.05;;
58908;SDS011;44690;48.154;17.102;2023-03-03T01:14:43;30.42;;;18.55;;
58908;SDS011;44690;48.154;17.102;2023-03-03T01:17:49;26.35;;;18.50;;
58908;SDS011;44690;48.154;17.102;2023-03-03T01:19:21;23.42;;;15.10;;
58908;SDS011;44690;48.154;17.102;2023-03-03T01:20:54;31.17;;;17.95;;
58908;SDS011;44690;48.154;17.102;2023-03-03T01:22:26;26.17;;;15.77;;
58908;SDS011;44690;48.154;17.102;2023-03-03T01:23:59;36.83;;;16.42;;
58908;SDS011;44690;48.154;17.102;2023-03-03T01:25:31;26.52;;;15.32;;
58908;SDS011;44690;48.154;17.102;2023-03-03T01:27:03;32.13;;;16.02;;
58908;SDS011;44690;48.154;17.102;2023-03-03T01:28:38;27.55;;;15.43;;
58908;SDS011;44690;48.154;17.102;2023-03-03T01:30:11;28.15;;;17.48;;
58908;SDS011;44690;48.154;17.102;2023-03-03T01:31:43;28.92;;;15.65;;
58908;SDS011;44690;48.154;17.102;2023-03-03T01:33:15;28.23;;;16.13;;
58908;SDS011;44690;48.154;17.102;2023-03-03T01:34:49;20.85;;;15.27;;
58908;SDS011;44690;48.154;17.102;2023-03-03T01:36:22;22.63;;;14.23;;
58908;SDS011;44690;48.154;17.102;2023-03-03T01:37:58;25.20;;;13.07;;
58908;SDS011;44690;48.154;17.102;2023-03-03T01:39:30;22.33;;;13.90;;
58908;SDS011;44690;48.154;17.102;2023-03-03T01:41:02;22.63;;;13.57;;
58908;SDS011;44690;48.154;17.102;2023-03-03T01:42:35;25.73;;;13.30;;
58908;SDS011;44690;48.154;17.102;2023-03-03T01:47:26;26.67;;;12.75;;
58908;SDS011;44690;48.154;17.102;2023-03-03T01:49:06;34.97;;;17.52;;
58908;SDS011;44690;48.154;17.102;2023-03-03T01:50:45;20.83;;;13.57;;
58908;SDS011;44690;48.154;17.102;2023-03-03T01:52:24;25.02;;;15.55;;
58908;SDS011;44690;48.154;17.102;2023-03-03T01:54:02;26.23;;;15.68;;
58908;SDS011;44690;48.154;17.102;2023-03-03T01:55:38;25.92;;;15.77;;
58908;SDS011;44690;48.154;17.102;2023-03-03T01:57:12;33.60;;;16.58;;
58908;SDS011;44690;48.154;17.102;2023-03-03T01:58:53;25.75;;;13.55;;
58908;SDS011;44690;48.154;17.102;2023-03-03T02:00:35;26.40;;;16.45;;
58908;SDS011;44690;48.154;17.102;2023-03-03T02:02:10;32.63;;;16.45;;
58908;SDS011;44690;48.154;17.102;2023-03-03T02:03:42;26.60;;;16.20;;
58908;SDS011;44690;48.154;17.102;2023-03-03T02:05:15;23.08;;;14.40;;
58908;SDS011;44690;48.154;17.102;2023-03-03T02:06:51;29.45;;;13.50;;
58908;SDS011;44690;48.154;17.102;2023-03-03T02:08:30;29.33;;;16.38;;
58908;SDS011;44690;48.154;17.102;2023-03-03T02:10:14;33.60;;;16.55;;
58908;SDS011;44690;48.154;17.102;2023-03-03T02:11:49;23.63;;;14.77;;
58908;SDS011;44690;48.154;17.102;2023-03-03T02:13:23;28.17;;;16.92;;
58908;SDS011;44690;48.154;17.102;2023-03-03T02:14:58;24.38;;;17.13;;
58908;SDS011;44690;48.154;17.102;2023-03-03T02:16:30;33.97;;;18.67;;
58908;SDS011;44690;48.154;17.102;2023-03-03T02:18:04;26.67;;;17.70;;
58908;SDS011;44690;48.154;17.102;2023-03-03T02:19:49;28.85;;;16.02;;
58908;SDS011;44690;48.154;17.102;2023-03-03T02:21:30;29.70;;;17.33;;
58908;SDS011;44690;48.154;17.102;2023-03-03T02:25:07;31.02;;;17.90;;
58908;SDS011;44690;48.154;17.102;2023-03-03T02:26:45;31.77;;;17.85;;
58908;SDS011;44690;48.154;17.102;2023-03-03T02:28:18;26.48;;;16.38;;
58908;SDS011;44690;48.154;17.102;2023-03-03T02:29:52;24.00;;;15.50;;
58908;SDS011;44690;48.154;17.102;2023-03-03T02:31:25;36.15;;;17.58;;
58908;SDS011;44690;48.154;17.102;2023-03-03T02:32:59;28.95;;;18.23;;
58908;SDS011;44690;48.154;17.102;2023-03-03T02:34:42;30.35;;;15.23;;
58908;SDS011;44690;48.154;17.102;2023-03-03T02:36:21;26.60;;;16.13;;
58908;SDS011;44690;48.154;17.102;2023-03-03T02:39:51;30.75;;;17.05;;
58908;SDS011;44690;48.154;17.102;2023-03-03T02:43:12;28.83;;;16.42;;
58908;SDS011;44690;48.154;17.102;2023-03-03T02:44:49;51.70;;;16.65;;
58908;SDS011;44690;48.154;17.102;2023-03-03T02:46:22;23.48;;;18.23;;
58908;SDS011;44690;48.154;17.102;2023-03-03T02:47:54;28.58;;;15.73;;
58908;SDS011;44690;48.154;17.102;2023-03-03T02:49:27;24.67;;;14.80;;
58908;SDS011;44690;48.154;17.102;2023-03-03T02:51:04;37.03;;;15.10;;
58908;SDS011;44690;48.154;17.102;2023-03-03T02:52:36;25.55;;;14.80;;
58908;SDS011;44690;48.154;17.102;2023-03-03T02:55:42;28.83;;;12.07;;
58908;SDS011;44690;48.154;17.102;2023-03-03T02:57:14;29.00;;;15.90;;
58908;SDS011;44690;48.154;17.102;2023-03-03T02:58:46;28.98;;;13.90;;
58908;SDS011;44690;48.154;17.102;2023-03-03T03:00:19;27.23;;;16.60;;
58908;SDS011;44690;48.154;17.102;2023-03-03T03:01:52;20.85;;;14.35;;
58908;SDS011;44690;48.154;17.102;2023-03-03T03:03:24;26.77;;;15.70;;
58908;SDS011;44690;48.154;17.102;2023-03-03T03:04:57;26.75;;;14.00;;
58908;SDS011;44690;48.154;17.102;2023-03-03T03:06:29;28.85;;;16.42;;
58908;SDS011;44690;48.154;17.102;2023-03-03T03:08:02;33.40;;;15.75;;
58908;SDS011;44690;48.154;17.102;2023-03-03T03:09:35;31.65;;;16.38;;
58908;SDS011;44690;48.154;17.102;2023-03-03T03:11:08;30.65;;;14.82;;
58908;SDS011;44690;48.154;17.102;2023-03-03T03:12:42;26.95;;;15.65;;
58908;SDS011;44690;48.154;17.102;2023-03-03T03:14:15;25.20;;;16.52;;
58908;SDS011;44690;48.154;17.102;2023-03-03T03:15:48;29.92;;;16.17;;
58908;SDS011;44690;48.154;17.102;2023-03-03T03:17:20;23.05;;;15.70;;
58908;SDS011;44690;48.154;17.102;2023-03-03T03:18:54;22.80;;;14.52;;
58908;SDS011;44690;48.154;17.102;2023-03-03T03:20:26;35.97;;;18.60;;
58908;SDS011;44690;48.154;17.102;2023-03-03T03:21:58;29.33;;;18.95;;
58908;SDS011;44690;48.154;17.102;2023-03-03T03:23:31;35.30;;;17.25;;
58908;SDS011;44690;48.154;17.102;2023-03-03T03:25:05;30.70;;;17.27;;
58908;SDS011;44690;48.154;17.102;2023-03-03T03:26:38;32.70;;;17.27;;
58908;SDS011;44690;48.154;17.102;2023-03-03T03:28:10;32.85;;;19.08;;
58908;SDS011;44690;48.154;17.102;2023-03-03T03:29:43;31.90;;;18.33;;
58908;SDS011;44690;48.154;17.102;2023-03-03T03:31:16;37.03;;;17.77;;
58908;SDS011;44690;48.154;17.102;2023-03-03T03:32:49;24.75;;;16.95;;
58908;SDS011;44690;48.154;17.102;2023-03-03T03:34:22;29.33;;;14.02;;
58908;SDS011;44690;48.154;17.102;2023-03-03T03:35:56;25.05;;;16.92;;
58908;SDS011;44690;48.154;17.102;2023-03-03T03:37:29;35.67;;;16.73;;
58908;SDS011;44690;48.154;17.102;2023-03-03T03:39:02;32.97;;;16.45;;
58908;SDS011;44690;48.154;17.102;2023-03-03T03:40:39;31.10;;;16.55;;
58908;SDS011;44690;48.154;17.102;2023-03-03T03:42:11;27.63;;;16.30;;
58908;SDS011;44690;48.154;17.102;2023-03-03T03:43:44;30.45;;;18.88;;
58908;SDS011;44690;48.154;17.102;2023-03-03T03:45:18;32.20;;;16.55;;
58908;SDS011;44690;48.154;17.102;2023-03-03T03:46:51;29.45;;;15.68;;
58908;SDS011;44690;48.154;17.102;2023-03-03T03:48:24;25.48;;;16.52;;
58908;SDS011;44690;48.154;17.102;2023-03-03T03:49:56;23.77;;;16.10;;
58908;SDS011;44690;48.154;17.102;2023-03-03T03:51:29;33.50;;;16.15;;
58908;SDS011;44690;48.154;17.102;2023-03-03T03:53:03;35.00;;;17.05;;
58908;SDS011;44690;48.154;17.102;2023-03-03T03:56:08;31.52;;;15.38;;
58908;SDS011;44690;48.154;17.102;2023-03-03T03:57:41;29.58;;;14.00;;
58908;SDS011;44690;48.154;17.102;2023-03-03T03:59:13;27.13;;;15.38;;
58908;SDS011;44690;48.154;17.102;2023-03-03T04:00:46;28.88;;;17.30;;
58908;SDS011;44690;48.154;17.102;2023-03-03T04:02:18;33.97;;;16.80;;
58908;SDS011;44690;48.154;17.102;2023-03-03T04:03:51;31.10;;;16.60;;
58908;SDS011;44690;48.154;17.102;2023-03-03T04:05:26;26.48;;;14.60;;
58908;SDS011;44690;48.154;17.102;2023-03-03T04:08:31;25.98;;;16.38;;
58908;SDS011;44690;48.154;17.102;2023-03-03T04:10:03;32.15;;;19.50;;
58908;SDS011;44690;48.154;17.102;2023-03-03T04:13:10;31.35;;;17.77;;
58908;SDS011;44690;48.154;17.102;2023-03-03T04:14:42;28.85;;;17.05;;
58908;SDS011;44690;48.154;17.102;2023-03-03T04:16:15;35.25;;;17.95;;
58908;SDS011;44690;48.154;17.102;2023-03-03T04:17:47;27.75;;;17.20;;
58908;SDS011;44690;48.154;17.102;2023-03-03T04:19:20;33.42;;;16.80;;
58908;SDS011;44690;48.154;17.102;2023-03-03T04:20:54;32.88;;;19.55;;
58908;SDS011;44690;48.154;17.102;2023-03-03T04:22:28;29.80;;;18.60;;
58908;SDS011;44690;48.154;17.102;2023-03-03T04:24:04;35.03;;;20.95;;
58908;SDS011;44690;48.154;17.102;2023-03-03T04:27:16;30.17;;;17.30;;
58908;SDS011;44690;48.154;17.102;2023-03-03T04:28:48;29.70;;;19.00;;
58908;SDS011;44690;48.154;17.102;2023-03-03T04:30:21;33.83;;;19.60;;
58908;SDS011;44690;48.154;17.102;2023-03-03T04:31:57;34.30;;;18.30;;
58908;SDS011;44690;48.154;17.102;2023-03-03T04:33:30;35.53;;;18.48;;
58908;SDS011;44690;48.154;17.102;2023-03-03T04:36:43;33.28;;;18.27;;
58908;SDS011;44690;48.154;17.102;2023-03-03T04:38:15;26.95;;;16.88;;
58908;SDS011;44690;48.154;17.102;2023-03-03T04:39:49;33.88;;;20.75;;
58908;SDS011;44690;48.154;17.102;2023-03-03T04:41:22;31.35;;;17.80;;
58908;SDS011;44690;48.154;17.102;2023-03-03T04:42:54;27.23;;;19.35;;
58908;SDS011;44690;48.154;17.102;2023-03-03T04:44:27;28.08;;;17.42;;
58908;SDS011;44690;48.154;17.102;2023-03-03T04:45:59;32.03;;;18.00;;
58908;SDS011;44690;48.154;17.102;2023-03-03T04:47:32;36.42;;;19.75;;
58908;SDS011;44690;48.154;17.102;2023-03-03T04:49:04;35.83;;;16.92;;
58908;SDS011;44690;48.154;17.102;2023-03-03T04:50:42;30.13;;;15.50;;
58908;SDS011;44690;48.154;17.102;2023-03-03T04:52:17;26.88;;;16.58;;
58908;SDS011;44690;48.154;17.102;2023-03-03T04:53:49;27.52;;;16.67;;
58908;SDS011;44690;48.154;17.102;2023-03-03T04:55:22;32.78;;;18.00;;
58908;SDS011;44690;48.154;17.102;2023-03-03T04:56:55;29.08;;;16.55;;
58908;SDS011;44690;48.154;17.102;2023-03-03T04:58:27;29.75;;;17.10;;
58908;SDS011;44690;48.154;17.102;2023-03-03T05:00:00;30.75;;;18.02;;
58908;SDS011;44690;48.154;17.102;2023-03-03T05:01:34;28.33;;;18.27;;
58908;SDS011;44690;48.154;17.102;2023-03-03T05:04:42;30.75;;;18.67;;
58908;SDS011;44690;48.154;17.102;2023-03-03T05:06:15;40.17;;;18.30;;
58908;SDS011;44690;48.154;17.102;2023-03-03T05:07:49;25.92;;;17.02;;
58908;SDS011;44690;48.154;17.102;2023-03-03T05:09:22;37.38;;;20.17;;
58908;SDS011;44690;48.154;17.102;2023-03-03T05:10:54;24.90;;;17.13;;
58908;SDS011;44690;48.154;17.102;2023-03-03T05:12:26;28.60;;;19.00;;
58908;SDS011;44690;48.154;17.102;2023-03-03T05:13:59;28.35;;;18.95;;
58908;SDS011;44690;48.154;17.102;2023-03-03T05:15:31;39.28;;;21.15;;
58908;SDS011;44690;48.154;17.102;2023-03-03T05:17:03;31.87;;;18.53;;
58908;SDS011;44690;48.154;17.102;2023-03-03T05:18:36;32.83;;;19.27;;
58908;SDS011;44690;48.154;17.102;2023-03-03T05:20:09;33.80;;;20.40;;
58908;SDS011;44690;48.154;17.102;2023-03-03T05:21:42;34.88;;;20.50;;
58908;SDS011;44690;48.154;17.102;2023-03-03T05:23:14;30.02;;;17.85;;
58908;SDS011;44690;48.154;17.102;2023-03-03T05:24:46;35.03;;;18.67;;
58908;SDS011;44690;48.154;17.102;2023-03-03T05:26:20;31.48;;;19.48;;
58908;SDS011;44690;48.154;17.102;2023-03-03T05:27:53;30.35;;;16.65;;
58908;SDS011;44690;48.154;17.102;2023-03-03T05:29:25;28.17;;;15.68;;
58908;SDS011;44690;48.154;17.102;2023-03-03T05:30:59;22.70;;;14.65;;
58908;SDS011;44690;48.154;17.102;2023-03-03T05:32:31;27.40;;;15.85;;
58908;SDS011;44690;48.154;17.102;2023-03-03T05:34:03;42.00;;;18.35;;
58908;SDS011;44690;48.154;17.102;2023-03-03T05:35:36;29.95;;;17.27;;
58908;SDS011;44690;48.154;17.102;2023-03-03T05:37:08;33.85;;;18.17;;
58908;SDS011;44690;48.154;17.102;2023-03-03T05:38:40;32.42;;;15.63;;
58908;SDS011;44690;48.154;17.102;2023-03-03T05:40:13;33.92;;;16.02;;
58908;SDS011;44690;48.154;17.102;2023-03-03T05:41:45;34.47;;;19.70;;
58908;SDS011;44690;48.154;17.102;2023-03-03T05:43:18;35.97;;;16.38;;
58908;SDS011;44690;48.154;17.102;2023-03-03T05:44:50;25.20;;;14.75;;
58908;SDS011;44690;48.154;17.102;2023-03-03T05:46:22;27.47;;;15.40;;
58908;SDS011;44690;48.154;17.102;2023-03-03T05:47:55;38.28;;;19.25;;
58908;SDS011;44690;48.154;17.102;2023-03-03T05:49:27;31.90;;;16.88;;
58908;SDS011;44690;48.154;17.102;2023-03-03T05:50:59;28.35;;;14.95;;
58908;SDS011;44690;48.154;17.102;2023-03-03T05:52:31;33.33;;;15.30;;
58908;SDS011;44690;48.154;17.102;2023-03-03T05:54:04;26.23;;;16.05;;
58908;SDS011;44690;48.154;17.102;2023-03-03T05:55:36;28.77;;;15.38;;
58908;SDS011;44690;48.154;17.102;2023-03-03T05:57:08;31.13;;;20.38;;
58908;SDS011;44690;48.154;17.102;2023-03-03T05:58:41;27.85;;;16.33;;
58908;SDS011;44690;48.154;17.102;2023-03-03T06:00:13;34.95;;;18.05;;
58908;SDS011;44690;48.154;17.102;2023-03-03T06:01:46;37.63;;;21.25;;
58908;SDS011;44690;48.154;17.102;2023-03-03T06:03:19;40.42;;;20.27;;
58908;SDS011;44690;48.154;17.102;2023-03-03T06:04:51;25.92;;;18.08;;
58908;SDS011;44690;48.154;17.102;2023-03-03T06:06:23;31.37;;;19.57;;
58908;SDS011;44690;48.154;17.102;2023-03-03T06:07:55;28.48;;;19.15;;
58908;SDS011;44690;48.154;17.102;2023-03-03T06:09:28;51.38;;;27.80;;
58908;SDS011;44690;48.154;17.102;2023-03-03T06:11:00;47.67;;;22.37;;
58908;SDS011;44690;48.154;17.102;2023-03-03T06:12:32;42.50;;;26.67;;
58908;SDS011;44690;48.154;17.102;2023-03-03T06:14:05;39.97;;;21.08;;
58908;SDS011;44690;48.154;17.102;2023-03-03T06:15:37;45.80;;;24.53;;
58908;SDS011;44690;48.154;17.102;2023-03-03T06:17:09;45.05;;;23.23;;
58908;SDS011;44690;48.154;17.102;2023-03-03T06:18:42;40.28;;;23.13;;
58908;SDS011;44690;48.154;17.102;2023-03-03T06:20:14;45.13;;;25.80;;
58908;SDS011;44690;48.154;17.102;2023-03-03T06:21:46;39.90;;;25.10;;
58908;SDS011;44690;48.154;17.102;2023-03-03T06:23:18;34.55;;;20.50;;
58908;SDS011;44690;48.154;17.102;2023-03-03T06:24:51;41.55;;;24.10;;
58908;SDS011;44690;48.154;17.102;2023-03-03T06:26:23;37.13;;;24.20;;
58908;SDS011;44690;48.154;17.102;2023-03-03T06:27:55;42.22;;;23.58;;
58908;SDS011;44690;48.154;17.102;2023-03-03T06:29:27;43.55;;;25.30;;
58908;SDS011;44690;48.154;17.102;2023-03-03T06:31:00;52.70;;;27.60;;
58908;SDS011;44690;48.154;17.102;2023-03-03T06:32:32;40.97;;;26.08;;
58908;SDS011;44690;48.154;17.102;2023-03-03T06:34:04;45.78;;;27.23;;
58908;SDS011;44690;48.154;17.102;2023-03-03T06:35:36;53.90;;;27.90;;
58908;SDS011;44690;48.154;17.102;2023-03-03T06:37:08;51.70;;;28.48;;
58908;SDS011;44690;48.154;17.102;2023-03-03T06:38:41;52.03;;;28.58;;
58908;SDS011;44690;48.154;17.102;2023-03-03T06:40:13;45.53;;;29.23;;
58908;SDS011;44690;48.154;17.102;2023-03-03T06:41:45;46.67;;;29.25;;
58908;SDS011;44690;48.154;17.102;2023-03-03T06:43:18;53.45;;;29.83;;
58908;SDS011;44690;48.154;17.102;2023-03-03T06:44:50;43.92;;;26.05;;
58908;SDS011;44690;48.154;17.102;2023-03-03T06:46:22;47.13;;;28.90;;
58908;SDS011;44690;48.154;17.102;2023-03-03T06:47:54;46.50;;;29.48;;
58908;SDS011;44690;48.154;17.102;2023-03-03T06:49:27;48.30;;;32.40;;
58908;SDS011;44690;48.154;17.102;2023-03-03T06:51:00;45.80;;;29.45;;
58908;SDS011;44690;48.154;17.102;2023-03-03T06:52:34;42.65;;;25.88;;
58908;SDS011;44690;48.154;17.102;2023-03-03T06:54:10;51.15;;;29.90;;
58908;SDS011;44690;48.154;17.102;2023-03-03T06:55:51;43.85;;;28.63;;
58908;SDS011;44690;48.154;17.102;2023-03-03T06:57:28;45.53;;;30.70;;
58908;SDS011;44690;48.154;17.102;2023-03-03T06:59:01;35.55;;;25.42;;
58908;SDS011;44690;48.154;17.102;2023-03-03T07:00:37;45.50;;;31.02;;
58908;SDS011;44690;48.154;17.102;2023-03-03T07:02:12;46.67;;;28.10;;
58908;SDS011;44690;48.154;17.102;2023-03-03T07:03:50;41.55;;;26.77;;
58908;SDS011;44690;48.154;17.102;2023-03-03T07:05:22;53.95;;;29.77;;
58908;SDS011;44690;48.154;17.102;2023-03-03T07:06:56;40.78;;;24.23;;
58908;SDS011;44690;48.154;17.102;2023-03-03T07:08:31;47.92;;;25.88;;
58908;SDS011;44690;48.154;17.102;2023-03-03T07:10:06;51.80;;;30.30;;
58908;SDS011;44690;48.154;17.102;2023-03-03T07:11:49;46.50;;;26.60;;
58908;SDS011;44690;48.154;17.102;2023-03-03T07:13:26;58.20;;;31.50;;
58908;SDS011;44690;48.154;17.102;2023-03-03T07:16:44;45.60;;;26.88;;
58908;SDS011;44690;48.154;17.102;2023-03-03T07:20:10;56.40;;;32.58;;
58908;SDS011;44690;48.154;17.102;2023-03-03T07:21:49;46.78;;;28.25;;
58908;SDS011;44690;48.154;17.102;2023-03-03T07:23:24;53.60;;;35.03;;
58908;SDS011;44690;48.154;17.102;2023-03-03T07:24:59;57.05;;;35.47;;
58908;SDS011;44690;48.154;17.102;2023-03-03T07:26:35;55.05;;;34.20;;
58908;SDS011;44690;48.154;17.102;2023-03-03T07:28:12;66.43;;;33.45;;
58908;SDS011;44690;48.154;17.102;2023-03-03T07:29:48;73.70;;;36.25;;
58908;SDS011;44690;48.154;17.102;2023-03-03T07:31:41;51.83;;;33.85;;
58908;SDS011;44690;48.154;17.102;2023-03-03T07:33:18;56.53;;;33.53;;
58908;SDS011;44690;48.154;17.102;2023-03-03T07:35:00;59.35;;;32.50;;
58908;SDS011;44690;48.154;17.102;2023-03-03T07:36:34;60.20;;;34.95;;
58908;SDS011;44690;48.154;17.102;2023-03-03T07:39:59;53.92;;;31.80;;
58908;SDS011;44690;48.154;17.102;2023-03-03T07:41:37;60.25;;;39.80;;
58908;SDS011;44690;48.154;17.102;2023-03-03T07:45:01;56.08;;;33.75;;
58908;SDS011;44690;48.154;17.102;2023-03-03T07:46:47;58.75;;;33.28;;
58908;SDS011;44690;48.154;17.102;2023-03-03T07:48:24;64.15;;;36.45;;
58908;SDS011;44690;48.154;17.102;2023-03-03T07:50:23;56.95;;;34.53;;
58908;SDS011;44690;48.154;17.102;2023-03-03T07:51:54;70.95;;;33.78;;
58908;SDS011;44690;48.154;17.102;2023-03-03T07:53:33;52.55;;;34.13;;
58908;SDS011;44690;48.154;17.102;2023-03-03T07:57:19;56.25;;;34.70;;
58908;SDS011;44690;48.154;17.102;2023-03-03T07:59:25;56.22;;;36.95;;
58908;SDS011;44690;48.154;17.102;2023-03-03T08:01:41;57.90;;;34.33;;
58908;SDS011;44690;48.154;17.102;2023-03-03T08:02:55;59.65;;;33.90;;
58908;SDS011;44690;48.154;17.102;2023-03-03T08:04:40;62.72;;;36.95;;
58908;SDS011;44690;48.154;17.102;2023-03-03T08:06:30;68.65;;;35.40;;
58908;SDS011;44690;48.154;17.102;2023-03-03T08:11:22;74.47;;;40.00;;
58908;SDS011;44690;48.154;17.102;2023-03-03T08:12:56;55.70;;;32.17;;
58908;SDS011;44690;48.154;17.102;2023-03-03T08:14:33;64.78;;;36.97;;
58908;SDS011;44690;48.154;17.102;2023-03-03T08:17:40;72.95;;;38.35;;
58908;SDS011;44690;48.154;17.102;2023-03-03T08:19:14;67.90;;;36.95;;
58908;SDS011;44690;48.154;17.102;2023-03-03T08:20:53;66.80;;;39.55;;
58908;SDS011;44690;48.154;17.102;2023-03-03T08:22:30;60.97;;;37.80;;
58908;SDS011;44690;48.154;17.102;2023-03-03T08:24:06;57.33;;;37.10;;
58908;SDS011;44690;48.154;17.102;2023-03-03T08:25:39;64.93;;;37.80;;
58908;SDS011;44690;48.154;17.102;2023-03-03T08:27:13;59.28;;;32.53;;
58908;SDS011;44690;48.154;17.102;2023-03-03T08:28:45;63.95;;;36.58;;
58908;SDS011;44690;48.154;17.102;2023-03-03T08:30:18;48.97;;;28.88;;
58908;SDS011;44690;48.154;17.102;2023-03-03T08:31:50;65.43;;;39.55;;
58908;SDS011;44690;48.154;17.102;2023-03-03T08:33:22;63.33;;;37.75;;
58908;SDS011;44690;48.154;17.102;2023-03-03T08:34:54;74.20;;;38.55;;
58908;SDS011;44690;48.154;17.102;2023-03-03T08:36:27;79.43;;;39.78;;
58908;SDS011;44690;48.154;17.102;2023-03-03T08:37:59;70.63;;;36.25;;
58908;SDS011;44690;48.154;17.102;2023-03-03T08:39:31;61.22;;;34.75;;
58908;SDS011;44690;48.154;17.102;2023-03-03T08:41:04;58.20;;;38.92;;
58908;SDS011;44690;48.154;17.102;2023-03-03T08:44:09;72.78;;;35.70;;
58908;SDS011;44690;48.154;17.102;2023-03-03T08:45:48;73.10;;;36.75;;
58908;SDS011;44690;48.154;17.102;2023-03-03T08:47:31;58.97;;;35.22;;
58908;SDS011;44690;48.154;17.102;2023-03-03T08:49:08;67.70;;;38.25;;
58908;SDS011;44690;48.154;17.102;2023-03-03T08:50:41;60.72;;;36.55;;
58908;SDS011;44690;48.154;17.102;2023-03-03T08:53:46;56.08;;;30.85;;
58908;SDS011;44690;48.154;17.102;2023-03-03T08:55:29;69.88;;;41.38;;
58908;SDS011;44690;48.154;17.102;2023-03-03T08:57:02;73.35;;;39.72;;
58908;SDS011;44690;48.154;17.102;2023-03-03T08:58:39;65.35;;;39.33;;
58908;SDS011;44690;48.154;17.102;2023-03-03T09:02:05;82.03;;;44.42;;
58908;SDS011;44690;48.154;17.102;2023-03-03T09:03:38;77.53;;;40.70;;
58908;SDS011;44690;48.154;17.102;2023-03-03T09:05:11;74.38;;;43.13;;
58908;SDS011;44690;48.154;17.102;2023-03-03T09:06:49;64.35;;;37.30;;
58908;SDS011;44690;48.154;17.102;2023-03-03T09:08:22;67.15;;;43.22;;
58908;SDS011;44690;48.154;17.102;2023-03-03T09:09:54;72.85;;;40.92;;
58908;SDS011;44690;48.154;17.102;2023-03-03T09:11:27;68.68;;;42.90;;
58908;SDS011;44690;48.154;17.102;2023-03-03T09:13:09;75.35;;;44.88;;
58908;SDS011;44690;48.154;17.102;2023-03-03T09:14:44;84.60;;;45.97;;
58908;SDS011;44690;48.154;17.102;2023-03-03T09:16:18;65.30;;;37.83;;
58908;SDS011;44690;48.154;17.102;2023-03-03T09:17:52;66.57;;;41.42;;
58908;SDS011;44690;48.154;17.102;2023-03-03T09:19:29;64.50;;;38.60;;
58908;SDS011;44690;48.154;17.102;2023-03-03T09:22:52;82.80;;;44.45;;
58908;SDS011;44690;48.154;17.102;2023-03-03T09:24:40;88.88;;;43.97;;
58908;SDS011;44690;48.154;17.102;2023-03-03T09:26:29;68.10;;;41.67;;
58908;SDS011;44690;48.154;17.102;2023-03-03T09:28:13;58.45;;;32.50;;
58908;SDS011;44690;48.154;17.102;2023-03-03T09:30:39;86.05;;;40.40;;
58908;SDS011;44690;48.154;17.102;2023-03-03T09:31:58;74.68;;;45.65;;
58908;SDS011;44690;48.154;17.102;2023-03-03T09:33:40;69.82;;;39.55;;
58908;SDS011;44690;48.154;17.102;2023-03-03T09:37:23;79.65;;;47.65;;
58908;SDS011;44690;48.154;17.102;2023-03-03T09:39:22;64.28;;;39.88;;
58908;SDS011;44690;48.154;17.102;2023-03-03T09:41:05;76.20;;;45.55;;
58908;SDS011;44690;48.154;17.102;2023-03-03T09:45:10;66.45;;;42.97;;
58908;SDS011;44690;48.154;17.102;2023-03-03T09:49:30;66.65;;;44.13;;
58908;SDS011;44690;48.154;17.102;2023-03-03T09:55:08;68.50;;;44.15;;
58908;SDS011;44690;48.154;17.102;2023-03-03T09:58:55;78.78;;;43.90;;
58908;SDS011;44690;48.154;17.102;2023-03-03T10:04:18;68.82;;;43.83;;
58908;SDS011;44690;48.154;17.102;2023-03-03T10:17:17;61.05;;;41.08;;
58908;SDS011;44690;48.154;17.102;2023-03-03T10:20:43;74.43;;;43.05;;
58908;SDS011;44690;48.154;17.102;2023-03-03T10:22:49;71.20;;;41.17;;
58908;SDS011;44690;48.154;17.102;2023-03-03T10:26:04;69.15;;;44.38;;
58908;SDS011;44690;48.154;17.102;2023-03-03T10:31:49;66.10;;;36.40;;
58908;SDS011;44690;48.154;17.102;2023-03-03T10:34:13;70.28;;;42.58;;